sensor_id;sensor_type;location;lat;lon;timestamp;pressure;altitude;pressure_sealevel;temperature;humidity
40205;BME280;26963;42.666;23.366;2023-08-06T00:00:06;93857.34;;;24.09;57.06
40205;BME280;26963;42.666;23.366;2023-08-06T00:02:32;93860.50;;;24.04;57.41
40205;BME280;26963;42.666;23.366;2023-08-06T00:04:57;93857.84;;;23.97;58.64
40205;BME280;26963;42.666;23.366;2023-08-06T00:07:23;93872.28;;;23.97;59.69
40205;BME280;26963;42.666;23.366;2023-08-06T00:09:48;93825.50;;;23.91;62.36
40205;BME280;26963;42.666;23.366;2023-08-06T00:12:14;93781.38;;;23.51;61.75
40205;BME280;26963;42.666;23.366;2023-08-06T00:14:39;93885.53;;;23.99;63.47
40205;BME280;26963;42.666;23.366;2023-08-06T00:17:05;93883.97;;;23.98;62.72
40205;BME280;26963;42.666;23.366;2023-08-06T00:19:32;93871.50;;;23.97;59.47
40205;BME280;26963;42.666;23.366;2023-08-06T00:21:57;93856.75;;;23.87;61.03
40205;BME280;26963;42.666;23.366;2023-08-06T00:24:24;93828.47;;;23.63;59.93
40205;BME280;26963;42.666;23.366;2023-08-06T00:26:49;93858.44;;;23.70;59.84
40205;BME280;26963;42.666;23.366;2023-08-06T00:29:15;93846.84;;;23.55;61.32
40205;BME280;26963;42.666;23.366;2023-08-06T00:31:40;93844.88;;;23.59;59.87
40205;BME280;26963;42.666;23.366;2023-08-06T00:34:06;93835.53;;;23.60;59.84
40205;BME280;26963;42.666;23.366;2023-08-06T00:36:31;93832.13;;;23.45;60.82
40205;BME280;26963;42.666;23.366;2023-08-06T00:38:57;93856.97;;;23.58;60.93
40205;BME280;26963;42.666;23.366;2023-08-06T00:41:22;93783.94;;;23.20;60.12
40205;BME280;26963;42.666;23.366;2023-08-06T00:43:48;93838.31;;;23.53;59.27
40205;BME280;26963;42.666;23.366;2023-08-06T00:46:14;93839.19;;;23.39;59.81
40205;BME280;26963;42.666;23.366;2023-08-06T00:48:40;93834.94;;;23.31;60.30
40205;BME280;26963;42.666;23.366;2023-08-06T00:51:08;93817.50;;;23.21;59.45
40205;BME280;26963;42.666;23.366;2023-08-06T00:53:34;93820.63;;;23.12;59.50
40205;BME280;26963;42.666;23.366;2023-08-06T00:56:00;93830.00;;;23.07;60.17
40205;BME280;26963;42.666;23.366;2023-08-06T00:58:26;93842.50;;;23.05;62.43
40205;BME280;26963;42.666;23.366;2023-08-06T01:00:52;93751.63;;;22.55;62.48
40205;BME280;26963;42.666;23.366;2023-08-06T01:03:17;93795.81;;;22.95;62.73
40205;BME280;26963;42.666;23.366;2023-08-06T01:05:43;93802.31;;;23.16;61.58
40205;BME280;26963;42.666;23.366;2023-08-06T01:12:06;93790.56;;;23.23;62.71
40205;BME280;26963;42.666;23.366;2023-08-06T01:14:22;93795.56;;;23.32;63.39
40205;BME280;26963;42.666;23.366;2023-08-06T01:16:52;93776.56;;;23.21;61.65
40205;BME280;26963;42.666;23.366;2023-08-06T01:19:19;93723.06;;;22.78;62.10
40205;BME280;26963;42.666;23.366;2023-08-06T01:21:45;93750.56;;;23.02;61.31
40205;BME280;26963;42.666;23.366;2023-08-06T01:24:11;93761.34;;;23.23;62.42
40205;BME280;26963;42.666;23.366;2023-08-06T01:26:56;93762.03;;;23.35;62.23
40205;BME280;26963;42.666;23.366;2023-08-06T01:29:47;93773.72;;;23.35;62.94
40205;BME280;26963;42.666;23.366;2023-08-06T01:32:14;93711.69;;;22.90;62.81
40205;BME280;26963;42.666;23.366;2023-08-06T01:34:43;93777.56;;;23.41;63.44
40205;BME280;26963;42.666;23.366;2023-08-06T01:37:10;93738.38;;;23.13;62.56
40205;BME280;26963;42.666;23.366;2023-08-06T01:39:36;93705.38;;;23.01;63.27
40205;BME280;26963;42.666;23.366;2023-08-06T01:42:02;93713.47;;;23.08;63.57
40205;BME280;26963;42.666;23.366;2023-08-06T01:44:27;93712.28;;;23.12;62.67
40205;BME280;26963;42.666;23.366;2023-08-06T01:46:53;93702.16;;;23.13;62.08
40205;BME280;26963;42.666;23.366;2023-08-06T01:49:19;93718.47;;;23.20;61.34
40205;BME280;26963;42.666;23.366;2023-08-06T01:51:44;93756.88;;;23.44;61.84
40205;BME280;26963;42.666;23.366;2023-08-06T01:54:10;93724.72;;;23.21;61.90
40205;BME280;26963;42.666;23.366;2023-08-06T01:56:35;93716.16;;;23.11;62.95
40205;BME280;26963;42.666;23.366;2023-08-06T01:59:01;93767.34;;;23.49;63.25
40205;BME280;26963;42.666;23.366;2023-08-06T02:01:26;93754.13;;;23.44;63.12
40205;BME280;26963;42.666;23.366;2023-08-06T02:03:52;93735.47;;;23.39;62.19
40205;BME280;26963;42.666;23.366;2023-08-06T02:06:17;93697.47;;;23.17;62.37
40205;BME280;26963;42.666;23.366;2023-08-06T02:08:43;93759.91;;;23.53;61.94
40205;BME280;26963;42.666;23.366;2023-08-06T02:11:08;93729.13;;;23.49;61.91
40205;BME280;26963;42.666;23.366;2023-08-06T02:13:34;93739.19;;;23.56;61.86
40205;BME280;26963;42.666;23.366;2023-08-06T02:15:59;93747.00;;;23.57;62.88
40205;BME280;26963;42.666;23.366;2023-08-06T02:18:25;93746.34;;;23.46;62.33
40205;BME280;26963;42.666;23.366;2023-08-06T02:20:58;93700.19;;;23.17;62.93
40205;BME280;26963;42.666;23.366;2023-08-06T02:23:24;93768.84;;;23.57;62.73
40205;BME280;26963;42.666;23.366;2023-08-06T02:26:03;93715.78;;;23.13;63.79
40205;BME280;26963;42.666;23.366;2023-08-06T02:28:29;93782.91;;;23.52;63.96
40205;BME280;26963;42.666;23.366;2023-08-06T02:30:55;93782.13;;;23.55;63.56
40205;BME280;26963;42.666;23.366;2023-08-06T02:33:21;93732.81;;;23.28;64.35
40205;BME280;26963;42.666;23.366;2023-08-06T02:35:46;93738.16;;;23.46;62.00
40205;BME280;26963;42.666;23.366;2023-08-06T02:38:12;93751.69;;;23.57;61.82
40205;BME280;26963;42.666;23.366;2023-08-06T02:40:45;93784.03;;;23.58;62.68
40205;BME280;26963;42.666;23.366;2023-08-06T02:43:12;93786.84;;;23.51;62.42
40205;BME280;26963;42.666;23.366;2023-08-06T02:45:37;93781.91;;;23.32;63.14
40205;BME280;26963;42.666;23.366;2023-08-06T02:48:03;93796.22;;;23.47;63.45
40205;BME280;26963;42.666;23.366;2023-08-06T02:50:29;93796.25;;;23.43;62.50
40205;BME280;26963;42.666;23.366;2023-08-06T02:52:54;93741.88;;;23.14;62.63
40205;BME280;26963;42.666;23.366;2023-08-06T02:55:20;93758.88;;;23.36;61.63
40205;BME280;26963;42.666;23.366;2023-08-06T02:57:45;93683.03;;;22.68;62.31
40205;BME280;26963;42.666;23.366;2023-08-06T03:00:11;93683.88;;;22.57;62.63
40205;BME280;26963;42.666;23.366;2023-08-06T03:02:37;93694.34;;;22.62;63.24
40205;BME280;26963;42.666;23.366;2023-08-06T03:05:03;93735.47;;;22.86;63.27
40205;BME280;26963;42.666;23.366;2023-08-06T03:07:29;93667.59;;;22.36;63.25
40205;BME280;26963;42.666;23.366;2023-08-06T03:09:54;93718.16;;;22.51;64.74
40205;BME280;26963;42.666;23.366;2023-08-06T03:12:20;93695.66;;;22.32;65.65
40205;BME280;26963;42.666;23.366;2023-08-06T03:14:45;93636.28;;;21.98;66.27
40205;BME280;26963;42.666;23.366;2023-08-06T03:17:11;93587.16;;;21.39;67.63
40205;BME280;26963;42.666;23.366;2023-08-06T03:19:37;93731.44;;;22.42;70.93
40205;BME280;26963;42.666;23.366;2023-08-06T03:22:03;93659.25;;;21.97;70.04
40205;BME280;26963;42.666;23.366;2023-08-06T03:24:28;93718.97;;;22.41;67.58
40205;BME280;26963;42.666;23.366;2023-08-06T03:26:54;93722.81;;;22.51;69.90
40205;BME280;26963;42.666;23.366;2023-08-06T03:29:19;93746.63;;;22.43;69.13
40205;BME280;26963;42.666;23.366;2023-08-06T03:31:46;93733.44;;;22.27;68.89
40205;BME280;26963;42.666;23.366;2023-08-06T03:34:12;93781.94;;;22.64;66.95
40205;BME280;26963;42.666;23.366;2023-08-06T03:36:37;93776.50;;;22.64;66.44
40205;BME280;26963;42.666;23.366;2023-08-06T03:39:03;93778.88;;;22.59;68.54
40205;BME280;26963;42.666;23.366;2023-08-06T03:41:28;93772.59;;;22.62;66.98
40205;BME280;26963;42.666;23.366;2023-08-06T03:43:54;93698.78;;;22.35;66.69
40205;BME280;26963;42.666;23.366;2023-08-06T03:46:19;93720.84;;;22.58;66.61
40205;BME280;26963;42.666;23.366;2023-08-06T03:48:45;93652.66;;;21.91;68.69
40205;BME280;26963;42.666;23.366;2023-08-06T03:51:10;93770.69;;;22.62;68.92
40205;BME280;26963;42.666;23.366;2023-08-06T03:53:36;93774.59;;;22.54;66.90
40205;BME280;26963;42.666;23.366;2023-08-06T03:56:01;93730.78;;;22.09;66.04
40205;BME280;26963;42.666;23.366;2023-08-06T03:58:27;93778.16;;;22.44;65.98
40205;BME280;26963;42.666;23.366;2023-08-06T04:01:02;93780.47;;;22.49;66.77
40205;BME280;26963;42.666;23.366;2023-08-06T04:03:28;93773.88;;;22.43;68.65
40205;BME280;26963;42.666;23.366;2023-08-06T04:05:54;93776.59;;;22.36;67.93
40205;BME280;26963;42.666;23.366;2023-08-06T04:08:19;93765.38;;;22.19;66.06
40205;BME280;26963;42.666;23.366;2023-08-06T04:10:45;93754.88;;;22.14;65.91
40205;BME280;26963;42.666;23.366;2023-08-06T04:13:10;93752.56;;;22.16;65.86
40205;BME280;26963;42.666;23.366;2023-08-06T04:15:36;93799.16;;;22.51;66.84
40205;BME280;26963;42.666;23.366;2023-08-06T04:18:02;93709.78;;;22.13;66.25
40205;BME280;26963;42.666;23.366;2023-08-06T04:20:27;93769.13;;;22.61;66.56
40205;BME280;26963;42.666;23.366;2023-08-06T04:22:54;93767.56;;;22.60;66.70
40205;BME280;26963;42.666;23.366;2023-08-06T04:25:20;93720.59;;;22.27;69.00
40205;BME280;26963;42.666;23.366;2023-08-06T04:27:47;93764.06;;;22.60;68.88
40205;BME280;26963;42.666;23.366;2023-08-06T04:30:12;93740.00;;;22.47;68.76
40205;BME280;26963;42.666;23.366;2023-08-06T04:32:39;93780.34;;;22.71;68.70
40205;BME280;26963;42.666;23.366;2023-08-06T04:35:05;93750.78;;;22.66;69.63
40205;BME280;26963;42.666;23.366;2023-08-06T04:37:30;93755.38;;;22.79;68.62
40205;BME280;26963;42.666;23.366;2023-08-06T04:39:56;93689.00;;;22.44;66.27
40205;BME280;26963;42.666;23.366;2023-08-06T04:42:21;93739.75;;;22.87;66.41
40205;BME280;26963;42.666;23.366;2023-08-06T04:44:47;93694.28;;;22.70;65.25
40205;BME280;26963;42.666;23.366;2023-08-06T04:47:13;93688.03;;;22.73;65.72
40205;BME280;26963;42.666;23.366;2023-08-06T04:49:38;93716.25;;;23.04;65.55
40205;BME280;26963;42.666;23.366;2023-08-06T04:52:04;93676.66;;;22.85;65.56
40205;BME280;26963;42.666;23.366;2023-08-06T04:54:30;93673.41;;;22.97;65.26
40205;BME280;26963;42.666;23.366;2023-08-06T04:56:55;93693.56;;;23.18;64.65
40205;BME280;26963;42.666;23.366;2023-08-06T04:59:21;93707.06;;;23.33;64.67
40205;BME280;26963;42.666;23.366;2023-08-06T05:01:46;93696.53;;;23.35;65.67
40205;BME280;26963;42.666;23.366;2023-08-06T05:04:12;93684.72;;;23.45;64.19
40205;BME280;26963;42.666;23.366;2023-08-06T05:06:37;93706.38;;;23.63;63.85
40205;BME280;26963;42.666;23.366;2023-08-06T05:09:04;93631.16;;;23.20;63.34
40205;BME280;26963;42.666;23.366;2023-08-06T05:11:30;93709.34;;;23.76;63.03
40205;BME280;26963;42.666;23.366;2023-08-06T05:13:55;93709.28;;;23.83;63.56
40205;BME280;26963;42.666;23.366;2023-08-06T05:16:21;93667.84;;;23.57;62.55
40205;BME280;26963;42.666;23.366;2023-08-06T05:18:46;93637.66;;;23.34;62.14
40205;BME280;26963;42.666;23.366;2023-08-06T05:21:12;93728.72;;;23.92;62.26
40205;BME280;26963;42.666;23.366;2023-08-06T05:23:38;93715.16;;;23.82;61.55
40205;BME280;26963;42.666;23.366;2023-08-06T05:26:03;93717.72;;;24.00;61.09
40205;BME280;26963;42.666;23.366;2023-08-06T05:28:29;93716.13;;;24.02;61.37
40205;BME280;26963;42.666;23.366;2023-08-06T05:30:54;93711.53;;;23.96;61.28
40205;BME280;26963;42.666;23.366;2023-08-06T05:33:20;93639.34;;;23.58;61.14
40205;BME280;26963;42.666;23.366;2023-08-06T05:35:45;93699.72;;;24.02;60.84
40205;BME280;26963;42.666;23.366;2023-08-06T05:38:11;93701.06;;;24.21;60.42
40205;BME280;26963;42.666;23.366;2023-08-06T05:40:36;93692.34;;;24.30;60.47
40205;BME280;26963;42.666;23.366;2023-08-06T05:43:02;93658.41;;;24.27;60.18
40205;BME280;26963;42.666;23.366;2023-08-06T05:45:27;93688.84;;;24.57;59.85
40205;BME280;26963;42.666;23.366;2023-08-06T05:47:53;93691.47;;;24.68;59.71
40205;BME280;26963;42.666;23.366;2023-08-06T05:50:23;93684.28;;;24.78;59.16
40205;BME280;26963;42.666;23.366;2023-08-06T05:52:49;93700.16;;;24.86;59.20
40205;BME280;26963;42.666;23.366;2023-08-06T05:55:14;93686.88;;;24.88;58.92
40205;BME280;26963;42.666;23.366;2023-08-06T05:57:40;93700.16;;;24.86;58.98
40205;BME280;26963;42.666;23.366;2023-08-06T06:00:06;93643.50;;;24.59;59.38
40205;BME280;26963;42.666;23.366;2023-08-06T06:02:32;93653.03;;;24.51;57.72
40205;BME280;26963;42.666;23.366;2023-08-06T06:04:57;93691.50;;;24.91;57.43
40205;BME280;26963;42.666;23.366;2023-08-06T06:07:23;93695.34;;;24.94;57.37
40205;BME280;26963;42.666;23.366;2023-08-06T06:09:48;93719.59;;;24.96;56.72
40205;BME280;26963;42.666;23.366;2023-08-06T06:12:14;93714.59;;;24.90;55.88
40205;BME280;26963;42.666;23.366;2023-08-06T06:14:39;93650.75;;;24.46;54.69
40205;BME280;26963;42.666;23.366;2023-08-06T06:17:05;93731.81;;;24.87;55.37
40205;BME280;26963;42.666;23.366;2023-08-06T06:19:30;93701.06;;;24.80;55.66
40205;BME280;26963;42.666;23.366;2023-08-06T06:21:56;93741.25;;;25.10;54.49
40205;BME280;26963;42.666;23.366;2023-08-06T06:24:23;93618.31;;;24.21;53.81
40205;BME280;26963;42.666;23.366;2023-08-06T06:26:49;93754.81;;;25.17;53.92
40205;BME280;26963;42.666;23.366;2023-08-06T06:29:14;93698.41;;;25.00;52.73
40205;BME280;26963;42.666;23.366;2023-08-06T06:31:39;93732.50;;;25.46;51.96
40205;BME280;26963;42.666;23.366;2023-08-06T06:34:05;93703.19;;;25.43;50.85
40205;BME280;26963;42.666;23.366;2023-08-06T06:36:30;93745.53;;;25.82;50.11
40205;BME280;26963;42.666;23.366;2023-08-06T06:38:56;93756.88;;;25.61;50.69
40205;BME280;26963;42.666;23.366;2023-08-06T06:41:22;93757.69;;;26.25;49.61
40205;BME280;26963;42.666;23.366;2023-08-06T06:43:47;93700.19;;;26.21;48.66
40205;BME280;26963;42.666;23.366;2023-08-06T06:46:13;93771.34;;;29.89;41.46
40205;BME280;26963;42.666;23.366;2023-08-06T06:48:38;93764.59;;;32.19;36.56
40205;BME280;26963;42.666;23.366;2023-08-06T06:51:04;93765.78;;;34.08;32.15
40205;BME280;26963;42.666;23.366;2023-08-06T06:53:29;93762.00;;;35.76;30.27
40205;BME280;26963;42.666;23.366;2023-08-06T06:56:01;93766.72;;;37.05;27.99
40205;BME280;26963;42.666;23.366;2023-08-06T06:58:27;93761.88;;;38.18;26.11
40205;BME280;26963;42.666;23.366;2023-08-06T07:00:52;93775.09;;;37.75;26.56
40205;BME280;26963;42.666;23.366;2023-08-06T07:03:19;93737.50;;;35.24;29.59
40205;BME280;26963;42.666;23.366;2023-08-06T07:05:45;93796.22;;;36.85;27.84
40205;BME280;26963;42.666;23.366;2023-08-06T07:08:11;93803.16;;;38.58;25.89
40205;BME280;26963;42.666;23.366;2023-08-06T07:10:37;93786.47;;;39.71;23.55
40205;BME280;26963;42.666;23.366;2023-08-06T07:13:02;93755.38;;;39.92;23.77
40205;BME280;26963;42.666;23.366;2023-08-06T07:15:28;93797.75;;;41.25;22.70
40205;BME280;26963;42.666;23.366;2023-08-06T07:17:54;93804.28;;;40.55;22.38
40205;BME280;26963;42.666;23.366;2023-08-06T07:20:19;93716.63;;;38.03;24.55
40205;BME280;26963;42.666;23.366;2023-08-06T07:22:45;93791.00;;;37.63;24.90
40205;BME280;26963;42.666;23.366;2023-08-06T07:25:11;93816.38;;;37.01;25.56
40205;BME280;26963;42.666;23.366;2023-08-06T07:27:37;93756.50;;;36.23;25.94
40205;BME280;26963;42.666;23.366;2023-08-06T07:30:03;93816.22;;;36.63;25.79
40205;BME280;26963;42.666;23.366;2023-08-06T07:32:30;93758.75;;;36.66;24.80
40205;BME280;26963;42.666;23.366;2023-08-06T07:34:56;93832.47;;;37.81;24.69
40205;BME280;26963;42.666;23.366;2023-08-06T07:37:25;93820.56;;;39.53;22.03
40205;BME280;26963;42.666;23.366;2023-08-06T07:39:50;93769.75;;;40.24;20.80
40205;BME280;26963;42.666;23.366;2023-08-06T07:42:16;93811.72;;;41.61;19.54
40205;BME280;26963;42.666;23.366;2023-08-06T07:44:41;93822.84;;;42.47;18.89
40205;BME280;26963;42.666;23.366;2023-08-06T07:47:07;93808.03;;;43.04;18.13
40205;BME280;26963;42.666;23.366;2023-08-06T07:49:33;93815.22;;;43.70;17.16
40205;BME280;26963;42.666;23.366;2023-08-06T07:51:58;93802.91;;;44.13;16.10
40205;BME280;26963;42.666;23.366;2023-08-06T07:54:24;93811.59;;;44.42;15.45
40205;BME280;26963;42.666;23.366;2023-08-06T07:56:50;93758.66;;;44.21;15.85
40205;BME280;26963;42.666;23.366;2023-08-06T07:59:15;93803.59;;;44.81;15.73
40205;BME280;26963;42.666;23.366;2023-08-06T08:01:41;93750.91;;;44.62;15.17
40205;BME280;26963;42.666;23.366;2023-08-06T08:04:06;93803.81;;;45.17;15.24
40205;BME280;26963;42.666;23.366;2023-08-06T08:06:33;93779.44;;;45.27;14.89
40205;BME280;26963;42.666;23.366;2023-08-06T08:08:59;93755.44;;;45.00;14.88
40205;BME280;26963;42.666;23.366;2023-08-06T08:11:25;93778.75;;;44.79;15.56
40205;BME280;26963;42.666;23.366;2023-08-06T08:13:51;93773.81;;;43.78;16.77
40205;BME280;26963;42.666;23.366;2023-08-06T08:16:16;93796.53;;;41.76;18.25
40205;BME280;26963;42.666;23.366;2023-08-06T08:18:42;93780.06;;;39.82;20.68
40205;BME280;26963;42.666;23.366;2023-08-06T08:21:07;93756.47;;;39.09;21.24
40205;BME280;26963;42.666;23.366;2023-08-06T08:23:33;93715.16;;;37.64;22.45
40205;BME280;26963;42.666;23.366;2023-08-06T08:25:59;93806.19;;;40.24;20.74
40205;BME280;26963;42.666;23.366;2023-08-06T08:28:24;93770.53;;;41.45;19.93
40205;BME280;26963;42.666;23.366;2023-08-06T08:30:50;93777.06;;;39.23;21.78
40205;BME280;26963;42.666;23.366;2023-08-06T08:33:15;93811.44;;;40.56;20.01
40205;BME280;26963;42.666;23.366;2023-08-06T08:35:41;93802.28;;;41.64;18.07
40205;BME280;26963;42.666;23.366;2023-08-06T08:38:06;93789.41;;;42.62;17.30
40205;BME280;26963;42.666;23.366;2023-08-06T08:40:33;93811.28;;;42.07;18.12
40205;BME280;26963;42.666;23.366;2023-08-06T08:43:02;93756.19;;;42.22;17.47
40205;BME280;26963;42.666;23.366;2023-08-06T08:45:29;93798.88;;;43.36;17.38
40205;BME280;26963;42.666;23.366;2023-08-06T08:47:55;93800.25;;;43.75;16.37
40205;BME280;26963;42.666;23.366;2023-08-06T08:50:21;93801.16;;;44.23;16.54
40205;BME280;26963;42.666;23.366;2023-08-06T08:52:47;93802.41;;;43.82;16.93
40205;BME280;26963;42.666;23.366;2023-08-06T08:55:15;93768.84;;;43.25;16.87
40205;BME280;26963;42.666;23.366;2023-08-06T08:57:41;93779.69;;;44.07;15.65
40205;BME280;26963;42.666;23.366;2023-08-06T09:00:06;93758.00;;;43.75;16.29
40205;BME280;26963;42.666;23.366;2023-08-06T09:02:33;93775.59;;;44.08;16.09
40205;BME280;26963;42.666;23.366;2023-08-06T09:05:00;93780.97;;;44.59;16.46
40205;BME280;26963;42.666;23.366;2023-08-06T09:07:41;93776.78;;;44.87;15.76
40205;BME280;26963;42.666;23.366;2023-08-06T09:10:11;93776.03;;;45.08;15.69
40205;BME280;26963;42.666;23.366;2023-08-06T09:12:39;93743.09;;;43.01;16.85
40205;BME280;26963;42.666;23.366;2023-08-06T09:15:05;93766.09;;;42.04;18.02
40205;BME280;26963;42.666;23.366;2023-08-06T09:17:31;93768.09;;;40.99;19.36
40205;BME280;26963;42.666;23.366;2023-08-06T09:19:57;93733.56;;;39.51;20.45
40205;BME280;26963;42.666;23.366;2023-08-06T09:22:23;93763.06;;;38.78;21.66
40205;BME280;26963;42.666;23.366;2023-08-06T09:24:49;93773.34;;;38.32;22.59
40205;BME280;26963;42.666;23.366;2023-08-06T09:27:16;93716.47;;;37.31;23.67
40205;BME280;26963;42.666;23.366;2023-08-06T09:29:43;93743.28;;;36.85;23.77
40205;BME280;26963;42.666;23.366;2023-08-06T09:32:08;93742.28;;;36.36;23.86
40205;BME280;26963;42.666;23.366;2023-08-06T09:34:34;93683.28;;;35.49;24.92
40205;BME280;26963;42.666;23.366;2023-08-06T09:36:59;93750.91;;;35.25;25.22
40205;BME280;26963;42.666;23.366;2023-08-06T09:39:29;93738.50;;;34.76;26.34
40205;BME280;26963;42.666;23.366;2023-08-06T09:41:56;93731.09;;;34.43;26.23
40205;BME280;26963;42.666;23.366;2023-08-06T09:44:23;93725.03;;;34.14;26.49
40205;BME280;26963;42.666;23.366;2023-08-06T09:46:51;93757.75;;;34.25;26.48
40205;BME280;26963;42.666;23.366;2023-08-06T09:49:21;93754.59;;;34.42;27.27
40205;BME280;26963;42.666;23.366;2023-08-06T09:51:47;93734.84;;;34.40;26.06
40205;BME280;26963;42.666;23.366;2023-08-06T09:54:16;93763.22;;;34.20;25.88
40205;BME280;26963;42.666;23.366;2023-08-06T09:56:43;93761.19;;;33.81;26.40
40205;BME280;26963;42.666;23.366;2023-08-06T09:59:08;93749.06;;;33.45;26.80
40205;BME280;26963;42.666;23.366;2023-08-06T10:01:35;93767.63;;;33.20;27.48
40205;BME280;26963;42.666;23.366;2023-08-06T10:04:03;93738.19;;;32.89;28.09
40205;BME280;26963;42.666;23.366;2023-08-06T10:06:31;93760.34;;;32.89;27.38
40205;BME280;26963;42.666;23.366;2023-08-06T10:08:58;93761.63;;;32.60;27.47
40205;BME280;26963;42.666;23.366;2023-08-06T10:11:24;93773.66;;;32.39;28.14
40205;BME280;26963;42.666;23.366;2023-08-06T10:13:57;93776.28;;;32.24;28.70
40205;BME280;26963;42.666;23.366;2023-08-06T10:16:24;93769.34;;;32.10;28.89
40205;BME280;26963;42.666;23.366;2023-08-06T10:18:50;93661.72;;;31.37;28.47
40205;BME280;26963;42.666;23.366;2023-08-06T10:21:17;93713.25;;;31.72;28.53
40205;BME280;26963;42.666;23.366;2023-08-06T10:23:42;93753.94;;;32.09;29.00
40205;BME280;26963;42.666;23.366;2023-08-06T10:26:09;93751.19;;;31.90;29.49
40205;BME280;26963;42.666;23.366;2023-08-06T10:28:39;93699.19;;;31.48;29.29
40205;BME280;26963;42.666;23.366;2023-08-06T10:31:06;93763.03;;;31.91;29.81
40205;BME280;26963;42.666;23.366;2023-08-06T10:33:45;93757.97;;;31.80;30.02
40205;BME280;26963;42.666;23.366;2023-08-06T10:36:11;93703.63;;;31.27;29.84
40205;BME280;26963;42.666;23.366;2023-08-06T10:38:45;93769.88;;;31.58;30.03
40205;BME280;26963;42.666;23.366;2023-08-06T10:41:37;93770.72;;;31.36;31.13
40205;BME280;26963;42.666;23.366;2023-08-06T10:44:10;93762.91;;;31.03;31.13
40205;BME280;26963;42.666;23.366;2023-08-06T10:46:36;93789.13;;;30.99;31.43
40205;BME280;26963;42.666;23.366;2023-08-06T10:49:04;93778.44;;;30.79;31.49
40205;BME280;26963;42.666;23.366;2023-08-06T10:51:30;93794.06;;;30.72;31.86
40205;BME280;26963;42.666;23.366;2023-08-06T10:53:56;93789.06;;;30.58;31.54
40205;BME280;26963;42.666;23.366;2023-08-06T10:56:25;93785.50;;;30.35;31.88
40205;BME280;26963;42.666;23.366;2023-08-06T10:58:54;93779.84;;;30.17;32.41
40205;BME280;26963;42.666;23.366;2023-08-06T11:01:24;93798.47;;;30.25;32.52
40205;BME280;26963;42.666;23.366;2023-08-06T11:03:50;93804.16;;;30.09;32.91
40205;BME280;26963;42.666;23.366;2023-08-06T11:06:23;93754.84;;;29.63;33.03
40205;BME280;26963;42.666;23.366;2023-08-06T11:08:50;93813.69;;;29.95;33.20
40205;BME280;26963;42.666;23.366;2023-08-06T11:11:17;93814.56;;;29.92;33.54
40205;BME280;26963;42.666;23.366;2023-08-06T11:13:44;93812.00;;;29.98;33.57
40205;BME280;26963;42.666;23.366;2023-08-06T11:16:12;93803.84;;;30.29;33.30
40205;BME280;26963;42.666;23.366;2023-08-06T11:18:40;93802.72;;;30.62;33.38
40205;BME280;26963;42.666;23.366;2023-08-06T11:21:05;93787.34;;;30.83;32.90
40205;BME280;26963;42.666;23.366;2023-08-06T11:23:34;93810.09;;;31.18;32.24
40205;BME280;26963;42.666;23.366;2023-08-06T11:26:00;93818.59;;;31.24;31.10
40205;BME280;26963;42.666;23.366;2023-08-06T11:28:26;93839.81;;;31.36;31.68
40205;BME280;26963;42.666;23.366;2023-08-06T11:30:52;93794.97;;;31.01;29.96
40205;BME280;26963;42.666;23.366;2023-08-06T11:33:25;93779.09;;;30.92;30.51
40205;BME280;26963;42.666;23.366;2023-08-06T11:35:51;93817.19;;;31.19;31.75
40205;BME280;26963;42.666;23.366;2023-08-06T11:38:17;93814.63;;;31.03;33.94
40205;BME280;26963;42.666;23.366;2023-08-06T11:40:47;93834.66;;;30.94;35.65
40205;BME280;26963;42.666;23.366;2023-08-06T11:43:13;93822.38;;;30.64;37.29
40205;BME280;26963;42.666;23.366;2023-08-06T11:45:40;93767.91;;;30.20;37.04
40205;BME280;26963;42.666;23.366;2023-08-06T11:48:07;93775.88;;;30.18;36.86
40205;BME280;26963;42.666;23.366;2023-08-06T11:50:37;93781.56;;;30.01;37.14
40205;BME280;26963;42.666;23.366;2023-08-06T11:53:04;93811.41;;;30.16;37.41
40205;BME280;26963;42.666;23.366;2023-08-06T11:55:30;93820.34;;;30.07;38.22
40205;BME280;26963;42.666;23.366;2023-08-06T11:57:56;93829.53;;;30.04;37.96
40205;BME280;26963;42.666;23.366;2023-08-06T12:00:24;93821.84;;;29.86;37.27
40205;BME280;26963;42.666;23.366;2023-08-06T12:02:50;93819.63;;;29.81;37.55
40205;BME280;26963;42.666;23.366;2023-08-06T12:05:22;93813.69;;;29.82;37.75
40205;BME280;26963;42.666;23.366;2023-08-06T12:07:58;93784.88;;;29.83;38.22
40205;BME280;26963;42.666;23.366;2023-08-06T12:10:26;93811.91;;;30.23;37.14
40205;BME280;26963;42.666;23.366;2023-08-06T12:12:53;93818.63;;;30.57;36.82
40205;BME280;26963;42.666;23.366;2023-08-06T12:15:18;93794.59;;;30.58;35.92
40205;BME280;26963;42.666;23.366;2023-08-06T12:17:44;93762.00;;;30.31;34.80
40205;BME280;26963;42.666;23.366;2023-08-06T12:20:10;93803.13;;;30.51;35.23
40205;BME280;26963;42.666;23.366;2023-08-06T12:22:37;93783.97;;;30.34;34.93
40205;BME280;26963;42.666;23.366;2023-08-06T12:25:08;93796.97;;;30.34;34.26
40205;BME280;26963;42.666;23.366;2023-08-06T12:27:38;93802.31;;;30.28;34.27
40205;BME280;26963;42.666;23.366;2023-08-06T12:30:05;93787.03;;;30.14;34.76
40205;BME280;26963;42.666;23.366;2023-08-06T12:32:31;93788.69;;;30.12;33.37
40205;BME280;26963;42.666;23.366;2023-08-06T12:34:56;93805.56;;;30.14;34.02
40205;BME280;26963;42.666;23.366;2023-08-06T12:37:22;93796.00;;;30.05;33.44
40205;BME280;26963;42.666;23.366;2023-08-06T12:39:48;93805.34;;;30.08;33.39
40205;BME280;26963;42.666;23.366;2023-08-06T12:42:13;93785.31;;;29.94;34.04
40205;BME280;26963;42.666;23.366;2023-08-06T12:44:39;93793.16;;;29.96;33.22
40205;BME280;26963;42.666;23.366;2023-08-06T12:47:04;93802.41;;;30.02;33.36
40205;BME280;26963;42.666;23.366;2023-08-06T12:49:30;93786.31;;;29.88;33.79